CST,Max TemperatureF,Mean TemperatureF,Min TemperatureF,Max Dew PointF,MeanDew PointF,Min DewpointF,Max Humidity, Mean Humidity, Min Humidity, Max Sea Level PressureIn, Mean Sea Level PressureIn, Min Sea Level PressureIn, Max VisibilityMiles, Mean VisibilityMiles, Min VisibilityMiles, Max Wind SpeedMPH, Mean Wind SpeedMPH, Max Gust SpeedMPH,PrecipitationIn, CloudCover, Events, WindDirDegrees
2013-1-1,29,18,7,25,16,4,92,85,77,30.25,30.17,30.08,10,8,2,15,9,21,T,6,Snow,339
2013-1-2,22,14,5,11,8,3,91,72,52,30.30,30.25,30.23,10,9,6,12,6,16,0.00,0,,215
2013-1-3,33,25,17,26,20,8,85,76,67,30.38,30.30,30.22,10,9,7,16,8,20,0.00,5,,250
2013-1-4,34,24,14,23,19,11,92,77,61,30.41,30.36,30.33,10,10,8,15,7,18,0.00,1,,241
2013-1-5,38,30,22,30,25,20,88,76,64,30.32,30.23,30.09,10,10,6,15,9,20,T,5,Snow,195
2013-1-6,36,28,19,31,24,19,100,83,66,30.40,30.20,30.02,10,9,5,25,12,31,0.00,5,,285
2013-1-7,35,27,19,25,22,18,100,82,64,30.44,30.34,30.21,10,7,3,20,9,26,0.00,0,,180
2013-1-8,42,34,27,32,27,23,85,74,60,30.25,30.19,30.17,10,9,6,12,8,,0.00,1,,172
2013-1-9,50,41,31,42,34,29,93,76,58,30.51,30.37,30.18,10,9,5,13,6,18,0.04,2,Rain,254
2013-1-10,54,42,32,54,39,26,100,87,55,30.49,30.16,29.84,10,6,0,17,10,24,0.07,7,Fog-Rain,123
2013-1-11,58,54,50,57,50,46,100,86,72,29.90,29.83,29.78,10,10,2,20,12,29,0.11,4,Rain,194
2013-1-12,61,47,33,51,44,34,100,85,69,29.96,29.87,29.77,10,7,3,29,12,35,1.27,5,Rain,331
2013-1-13,33,25,17,33,22,12,100,90,80,30.32,30.09,29.88,10,8,2,25,16,31,0.04,7,Rain-Snow,319
2013-1-14,25,20,14,17,14,10,92,82,71,30.49,30.43,30.36,10,10,10,15,7,17,0.00,1,,358
2013-1-15,29,23,16,23,19,13,92,81,69,30.43,30.30,30.14,10,10,8,16,8,18,0.00,3,,36
2013-1-16,38,28,18,26,22,17,100,76,52,30.12,30.08,30.01,10,8,3,15,7,20,0.00,3,,243
2013-1-17,37,30,23,30,25,19,88,74,59,30.48,30.30,30.12,10,10,8,21,9,24,0.00,3,,337
2013-1-18,39,31,22,28,24,20,96,74,52,30.50,30.34,30.14,10,10,10,22,12,31,0.00,0,,187
2013-1-19,53,45,37,36,32,28,76,63,50,30.14,30.02,29.90,10,10,10,30,14,38,0.00,0,,213
2013-1-20,40,31,21,28,15,10,84,67,50,30.33,30.26,30.08,10,10,10,28,13,37,0.00,3,,318
2013-1-21,21,15,8,16,5,-3,80,62,43,30.38,30.28,30.22,10,10,10,28,18,35,0.00,3,,300
2013-1-22,18,11,4,1,-2,-5,79,60,40,30.46,30.41,30.38,10,10,10,20,8,23,0.00,2,,294
2013-1-23,34,23,12,20,11,2,75,59,43,30.39,30.27,30.14,10,10,10,25,8,33,0.00,4,,247
2013-1-24,25,17,9,9,4,0,67,53,39,30.64,30.49,30.37,10,10,10,25,11,32,0.00,1,,54
2013-1-25,36,29,21,21,15,2,81,59,36,30.31,30.15,30.06,10,10,10,17,8,23,T,5,,219
2013-1-26,33,24,14,18,14,9,84,64,43,30.41,30.35,30.21,10,10,10,16,6,18,0.00,0,,26
2013-1-27,42,33,24,41,32,18,100,84,68,30.37,30.13,30.00,10,5,1,22,13,33,0.13,7,Rain,160
2013-1-28,56,49,42,56,52,42,100,96,92,30.02,29.96,29.91,7,2,0,18,11,26,0.10,8,Fog-Rain,181
2013-1-29,62,57,52,57,55,52,100,89,78,29.89,29.61,29.38,10,6,1,36,15,43,1.74,8,Rain-Thunderstorm,208
2013-1-30,53,39,25,52,38,15,100,84,68,29.81,29.46,29.34,10,8,1,33,19,41,0.42,8,Rain-Snow,249
2013-1-31,31,20,8,21,14,-2,77,70,62,30.31,30.00,29.83,10,8,2,36,21,45,T,7,Snow,280